createdAt,value
2022-10-06T00:02:01.537Z,21.90
2022-10-06T00:04:35.628Z,23.50
2022-10-06T00:07:09.468Z,23.43
2022-10-06T00:09:42.941Z,21.07
2022-10-06T00:12:14.428Z,22.33
2022-10-06T00:14:48.092Z,23.33
2022-10-06T00:17:20.784Z,22.70
2022-10-06T00:19:52.631Z,22.50
2022-10-06T00:22:24.267Z,22.80
2022-10-06T00:24:56.135Z,22.27
2022-10-06T00:27:27.790Z,21.20
2022-10-06T00:30:00.445Z,20.57
2022-10-06T00:32:31.306Z,21.40
2022-10-06T00:35:02.585Z,20.67
2022-10-06T00:37:36.903Z,21.13
2022-10-06T00:40:11.237Z,22.17
2022-10-06T00:42:55.180Z,20.53
2022-10-06T00:45:33.827Z,21.33
2022-10-06T00:48:10.244Z,21.20
2022-10-06T00:50:42.552Z,20.50
2022-10-06T00:53:14.429Z,21.20
2022-10-06T00:55:45.738Z,21.17
2022-10-06T00:58:17.906Z,22.33
2022-10-06T01:00:55.795Z,21.20
2022-10-06T01:03:31.247Z,21.30
2022-10-06T01:06:03.221Z,20.73
2022-10-06T01:08:37.922Z,21.37
2022-10-06T01:11:14.402Z,23.23
2022-10-06T01:13:49.145Z,22.43
2022-10-06T01:16:29.109Z,21.90
2022-10-06T01:19:01.011Z,22.87
2022-10-06T01:21:41.071Z,22.77
2022-10-06T01:24:14.822Z,23.37
2022-10-06T01:26:53.213Z,23.43
2022-10-06T01:29:25.486Z,24.20
2022-10-06T01:31:57.140Z,24.23
2022-10-06T01:34:33.481Z,24.83
2022-10-06T01:37:04.528Z,25.50
2022-10-06T01:39:41.846Z,24.07
2022-10-06T01:42:14.045Z,24.10
2022-10-06T01:44:45.433Z,24.40
2022-10-06T01:47:17.291Z,24.23
2022-10-06T01:49:48.874Z,25.90
2022-10-06T01:52:21.293Z,25.00
2022-10-06T01:54:54.409Z,26.00
2022-10-06T01:57:25.801Z,25.70
2022-10-06T01:59:57.871Z,26.27
2022-10-06T02:02:28.897Z,24.60
2022-10-06T02:05:00.045Z,24.93
2022-10-06T02:07:31.020Z,25.13
2022-10-06T02:10:04.223Z,24.60
2022-10-06T02:12:36.491Z,25.53
2022-10-06T02:15:09.854Z,25.27
2022-10-06T02:17:40.941Z,26.00
2022-10-06T02:20:12.911Z,25.60
2022-10-06T02:22:44.530Z,24.80
2022-10-06T02:25:19.161Z,26.20
2022-10-06T02:27:51.097Z,25.80
2022-10-06T02:30:24.258Z,25.67
2022-10-06T02:32:55.284Z,25.77
2022-10-06T02:35:28.569Z,26.77
2022-10-06T02:38:11.936Z,27.33
2022-10-06T02:40:47.562Z,27.87
2022-10-06T02:43:19.174Z,27.97
2022-10-06T02:45:57.635Z,27.37
2022-10-06T02:48:30.219Z,27.00
2022-10-06T02:51:02.956Z,27.03
2022-10-06T02:53:34.220Z,27.50
2022-10-06T02:56:09.811Z,26.77
2022-10-06T02:58:41.873Z,28.03
2022-10-06T03:01:14.779Z,27.30
2022-10-06T03:03:47.585Z,28.37
2022-10-06T03:06:26.687Z,29.67
2022-10-06T03:08:59.535Z,30.00
2022-10-06T03:11:34.099Z,29.63
2022-10-06T03:14:05.831Z,29.97
2022-10-06T03:16:39.695Z,29.87
2022-10-06T03:19:12.013Z,31.33
2022-10-06T03:21:44.911Z,31.37
2022-10-06T03:24:16.762Z,29.87
2022-10-06T03:26:50.431Z,31.50
2022-10-06T03:29:21.745Z,31.17
2022-10-06T03:31:52.669Z,30.60
2022-10-06T03:34:23.549Z,29.83
2022-10-06T03:36:54.677Z,31.20
2022-10-06T03:39:25.823Z,30.77
2022-10-06T03:41:58.952Z,30.53
2022-10-06T03:44:30.661Z,29.90
2022-10-06T03:47:01.863Z,31.63
2022-10-06T03:49:32.658Z,31.40
2022-10-06T03:52:03.715Z,31.43
2022-10-06T03:54:34.801Z,30.77
2022-10-06T03:57:08.173Z,28.97
2022-10-06T03:59:39.003Z,31.87
2022-10-06T04:02:09.903Z,32.63
2022-10-06T04:04:41.961Z,31.23
2022-10-06T04:07:13.063Z,33.10
2022-10-06T04:09:44.929Z,31.53
2022-10-06T04:12:18.006Z,34.23
2022-10-06T04:14:48.762Z,33.10
2022-10-06T04:17:19.884Z,31.67
2022-10-06T04:19:50.658Z,33.00
2022-10-06T04:22:21.369Z,33.10
2022-10-06T04:24:52.513Z,33.83
2022-10-06T04:27:31.133Z,32.77
2022-10-06T04:30:02.205Z,32.20
2022-10-06T04:32:33.280Z,33.13
2022-10-06T04:35:04.646Z,35.13
2022-10-06T04:37:35.462Z,34.47
2022-10-06T04:40:07.353Z,35.77
2022-10-06T04:42:42.378Z,35.93
2022-10-06T04:45:14.159Z,35.60
2022-10-06T04:47:47.285Z,38.57
2022-10-06T04:50:18.667Z,37.60
2022-10-06T04:52:49.237Z,37.37
2022-10-06T04:55:20.884Z,37.47
2022-10-06T04:57:53.547Z,39.07
2022-10-06T05:00:27.576Z,38.27
2022-10-06T05:02:58.512Z,37.43
2022-10-06T05:05:30.615Z,38.90
2022-10-06T05:08:01.885Z,38.53
2022-10-06T05:10:32.796Z,37.80
2022-10-06T05:13:08.112Z,39.30
2022-10-06T05:15:39.152Z,38.93
2022-10-06T05:18:10.053Z,39.20
2022-10-06T05:20:41.866Z,38.33
2022-10-06T05:23:13.201Z,38.00
2022-10-06T05:25:52.836Z,36.23
2022-10-06T05:28:27.482Z,37.33
2022-10-06T05:30:59.599Z,38.27
2022-10-06T05:33:32.198Z,39.40
2022-10-06T05:36:05.265Z,37.10
2022-10-06T05:38:36.840Z,37.27
2022-10-06T05:41:10.957Z,36.80
2022-10-06T05:43:44.744Z,36.87
2022-10-06T05:46:21.159Z,38.43
2022-10-06T05:48:52.896Z,37.47
2022-10-06T05:51:30.014Z,39.30
2022-10-06T05:54:01.913Z,39.53
2022-10-06T05:56:34.777Z,39.97
2022-10-06T05:59:08.565Z,39.37
2022-10-06T06:01:41.424Z,39.50
2022-10-06T06:04:14.923Z,38.87
2022-10-06T06:06:47.581Z,40.70
2022-10-06T06:09:20.565Z,41.90
2022-10-06T06:11:53.305Z,39.57
2022-10-06T06:14:46.700Z,40.60
2022-10-06T06:17:17.552Z,41.80
2022-10-06T06:19:48.856Z,42.17
2022-10-06T06:22:19.446Z,42.00
2022-10-06T06:24:49.963Z,41.30
2022-10-06T06:27:22.055Z,42.03
2022-10-06T06:29:54.914Z,42.33
2022-10-06T06:32:25.960Z,41.90
2022-10-06T06:34:56.866Z,40.93
2022-10-06T06:37:27.445Z,42.37
2022-10-06T06:39:59.419Z,43.97
2022-10-06T06:42:30.562Z,46.43
2022-10-06T06:45:03.088Z,45.10
2022-10-06T06:47:35.772Z,44.47
2022-10-06T06:50:10.989Z,44.33
2022-10-06T06:52:42.693Z,43.03
2022-10-06T06:55:13.392Z,43.90
2022-10-06T06:57:44.782Z,45.27
2022-10-06T07:00:17.984Z,44.80
2022-10-06T07:02:57.106Z,46.60
2022-10-06T07:05:28.455Z,47.93
2022-10-06T07:07:59.949Z,46.00
2022-10-06T07:10:32.476Z,45.33
2022-10-06T07:13:03.397Z,46.80
2022-10-06T07:15:52.791Z,46.93
2022-10-06T07:18:40.887Z,47.50
2022-10-06T07:21:30.274Z,46.80
2022-10-06T07:24:18.826Z,46.87
2022-10-06T07:26:49.798Z,45.43
2022-10-06T07:29:20.954Z,47.87
2022-10-06T07:31:54.059Z,47.97
2022-10-06T07:34:25.094Z,48.60
2022-10-06T07:36:57.096Z,48.07
2022-10-06T07:39:28.304Z,46.37
2022-10-06T07:41:59.061Z,48.07
2022-10-06T07:44:30.232Z,49.47
2022-10-06T07:47:04.338Z,47.30
2022-10-06T07:49:35.473Z,48.53
2022-10-06T07:52:06.000Z,48.80
2022-10-06T07:54:37.258Z,47.83
2022-10-06T07:57:08.465Z,47.33
2022-10-06T07:59:39.146Z,47.57
2022-10-06T08:02:12.834Z,47.37
2022-10-06T08:04:44.471Z,47.53
2022-10-06T08:07:15.725Z,47.63
2022-10-06T08:09:47.216Z,46.87
2022-10-06T08:12:38.633Z,46.13
2022-10-06T08:15:12.775Z,48.10
2022-10-06T08:17:46.727Z,46.80
2022-10-06T08:20:19.184Z,46.37
2022-10-06T08:22:51.917Z,47.23
2022-10-06T08:25:23.278Z,48.10
2022-10-06T08:27:54.932Z,45.53
2022-10-06T08:30:28.030Z,44.60
2022-10-06T08:33:01.706Z,46.10
2022-10-06T08:35:33.218Z,44.20
2022-10-06T08:38:03.989Z,45.10
2022-10-06T08:40:37.183Z,45.17
2022-10-06T08:43:14.880Z,44.50
2022-10-06T08:45:48.650Z,45.63
2022-10-06T08:48:30.551Z,44.07
2022-10-06T08:51:19.503Z,43.70
2022-10-06T08:54:01.500Z,43.30
2022-10-06T08:56:38.460Z,44.60
2022-10-06T08:59:12.832Z,44.27
2022-10-06T09:01:48.642Z,43.63
2022-10-06T09:04:29.170Z,46.23
2022-10-06T09:07:09.209Z,43.00
2022-10-06T09:09:54.695Z,43.67
2022-10-06T09:12:35.021Z,44.07
2022-10-06T09:15:20.173Z,43.47
2022-10-06T09:17:56.515Z,41.77
2022-10-06T09:20:34.587Z,42.13
2022-10-06T09:23:10.413Z,42.33
2022-10-06T09:25:42.035Z,41.67
2022-10-06T09:28:18.083Z,38.47
2022-10-06T09:30:53.177Z,37.50
2022-10-06T09:33:28.829Z,36.53
2022-10-06T09:36:11.329Z,32.73
2022-10-06T09:38:57.304Z,33.30
2022-10-06T09:41:32.720Z,30.70
2022-10-06T09:44:07.105Z,29.03
2022-10-06T09:46:42.661Z,28.03
2022-10-06T09:49:22.440Z,28.50
2022-10-06T09:52:12.081Z,29.20
2022-10-06T09:54:44.379Z,29.17
2022-10-06T09:57:20.839Z,29.10
2022-10-06T09:59:51.722Z,29.27
2022-10-06T10:02:37.746Z,28.47
2022-10-06T10:05:19.025Z,30.37
2022-10-06T10:08:05.528Z,28.87
2022-10-06T10:10:37.422Z,29.27
2022-10-06T10:13:22.154Z,27.20
2022-10-06T10:15:57.371Z,27.70
2022-10-06T10:18:30.960Z,26.50
2022-10-06T10:21:06.598Z,25.60
2022-10-06T10:23:41.148Z,26.03
2022-10-06T10:26:42.569Z,24.90
2022-10-06T10:29:51.238Z,24.53
2022-10-06T10:32:28.422Z,23.83
2022-10-06T10:35:08.009Z,23.30
2022-10-06T10:37:45.411Z,22.20
2022-10-06T10:40:49.091Z,23.23
2022-10-06T10:43:32.659Z,23.63
2022-10-06T10:46:09.005Z,23.43
2022-10-06T10:48:45.055Z,26.40
2022-10-06T10:51:23.720Z,25.63
2022-10-06T10:53:57.896Z,26.40
2022-10-06T10:56:34.238Z,27.27
2022-10-06T10:59:18.281Z,26.53
2022-10-06T11:01:54.805Z,28.20
2022-10-06T11:04:25.870Z,30.50
2022-10-06T11:07:09.879Z,34.20
2022-10-06T11:09:48.804Z,39.63
2022-10-06T11:12:35.280Z,42.27
2022-10-06T11:15:14.334Z,41.77
2022-10-06T11:17:48.008Z,45.63
2022-10-06T11:20:42.618Z,44.90
2022-10-06T11:23:41.548Z,42.37
2022-10-06T11:26:26.674Z,43.53
2022-10-06T11:29:09.918Z,44.83
2022-10-06T11:32:06.840Z,47.67
2022-10-06T11:34:38.316Z,46.77
2022-10-06T11:37:21.870Z,45.50
2022-10-06T11:40:02.696Z,44.03
2022-10-06T11:42:41.470Z,45.73
2022-10-06T11:45:18.062Z,46.23
2022-10-06T11:48:13.831Z,46.17
2022-10-06T11:50:48.184Z,47.43
2022-10-06T11:53:46.896Z,47.13
2022-10-06T11:56:42.273Z,45.57
2022-10-06T11:59:28.018Z,46.00
2022-10-06T12:02:00.514Z,46.03
2022-10-06T12:04:34.526Z,47.83
2022-10-06T12:07:07.444Z,46.17
2022-10-06T12:10:17.409Z,49.10
2022-10-06T12:13:07.448Z,46.23
2022-10-06T12:19:20.404Z,46.37
2022-10-06T12:22:01.729Z,47.20
2022-10-06T12:24:42.013Z,47.70
2022-10-06T12:27:37.863Z,48.20
2022-10-06T12:30:20.450Z,47.10
2022-10-06T12:32:57.114Z,46.43
2022-10-06T12:35:34.532Z,47.17
2022-10-06T12:38:08.766Z,46.57
2022-10-06T12:40:50.853Z,48.33
2022-10-06T12:43:52.040Z,44.67
2022-10-06T12:46:46.252Z,43.87
2022-10-06T12:49:38.470Z,45.67
2022-10-06T12:52:32.744Z,43.87
2022-10-06T12:55:17.532Z,43.00
2022-10-06T12:57:49.125Z,42.63
2022-10-06T13:00:35.572Z,43.83
2022-10-06T13:03:08.054Z,42.93
2022-10-06T13:05:39.793Z,41.60
2022-10-06T13:08:23.959Z,40.87
2022-10-06T13:11:15.088Z,41.43
2022-10-06T13:13:51.253Z,39.43
2022-10-06T13:16:25.921Z,38.57
2022-10-06T13:18:59.667Z,39.67
2022-10-06T13:21:33.089Z,39.87
2022-10-06T13:24:03.810Z,40.17
2022-10-06T13:26:36.917Z,40.07
2022-10-06T13:29:19.005Z,39.73
2022-10-06T13:31:53.250Z,38.27
2022-10-06T13:34:31.082Z,39.33
2022-10-06T13:37:02.779Z,40.20
2022-10-06T13:39:34.349Z,39.93
2022-10-06T13:42:11.876Z,39.80
2022-10-06T13:44:45.232Z,40.63
2022-10-06T13:47:20.201Z,40.80
2022-10-06T13:49:54.350Z,39.67
2022-10-06T13:52:28.410Z,40.03
2022-10-06T13:55:01.558Z,40.37
2022-10-06T13:57:53.115Z,40.30
2022-10-06T14:00:28.692Z,41.30
2022-10-06T14:03:11.837Z,41.03
2022-10-06T14:05:44.030Z,40.83
2022-10-06T14:08:27.397Z,41.00
2022-10-06T14:10:59.833Z,39.23
2022-10-06T14:13:37.414Z,39.37
2022-10-06T14:16:09.975Z,40.70
2022-10-06T14:18:44.566Z,38.57
2022-10-06T14:21:29.762Z,38.57
2022-10-06T14:24:04.726Z,38.80
2022-10-06T14:26:38.734Z,40.33
2022-10-06T14:29:11.625Z,41.27
2022-10-06T14:31:43.645Z,38.20
2022-10-06T14:34:17.447Z,39.93
2022-10-06T14:36:52.704Z,39.00
2022-10-06T14:39:24.316Z,39.37
2022-10-06T14:41:55.492Z,40.03
2022-10-06T14:44:28.653Z,37.03
2022-10-06T14:46:59.803Z,37.77
2022-10-06T14:49:30.973Z,38.27
2022-10-06T14:52:02.089Z,37.83
2022-10-06T14:54:33.383Z,39.33
2022-10-06T14:57:04.555Z,38.10
2022-10-06T14:59:37.424Z,37.67
2022-10-06T15:02:08.774Z,37.53
2022-10-06T15:04:39.746Z,37.23
2022-10-06T15:07:27.086Z,37.10
2022-10-06T15:09:58.666Z,37.03
2022-10-06T15:12:33.848Z,36.77
2022-10-06T15:15:08.361Z,37.00
2022-10-06T15:17:39.040Z,36.80
2022-10-06T15:20:10.621Z,35.37
2022-10-06T15:22:41.432Z,33.77
2022-10-06T15:25:34.117Z,34.00
2022-10-06T15:28:23.682Z,33.40
2022-10-06T15:30:57.638Z,33.83
2022-10-06T15:33:31.156Z,34.03
2022-10-06T15:36:20.645Z,33.07
2022-10-06T15:38:52.033Z,34.80
2022-10-06T15:41:23.501Z,34.53
2022-10-06T15:44:00.722Z,34.43
2022-10-06T15:46:37.493Z,33.17
2022-10-06T15:49:09.562Z,33.30
2022-10-06T15:51:45.859Z,34.23
2022-10-06T15:54:20.876Z,33.07
2022-10-06T15:56:53.654Z,34.37
2022-10-06T15:59:25.570Z,34.90
2022-10-06T16:02:04.582Z,33.17
2022-10-06T16:04:49.455Z,33.47
2022-10-06T16:07:21.672Z,32.27
2022-10-06T16:09:54.126Z,32.87
2022-10-06T16:12:30.344Z,31.03
2022-10-06T16:15:02.654Z,32.20
2022-10-06T16:17:36.485Z,29.90
2022-10-06T16:20:08.526Z,31.27
2022-10-06T16:22:40.017Z,30.63
2022-10-06T16:25:12.205Z,32.20
2022-10-06T16:27:43.428Z,31.10
2022-10-06T16:30:15.360Z,30.53
2022-10-06T16:32:48.459Z,30.60
2022-10-06T16:35:19.869Z,32.10
2022-10-06T16:37:52.292Z,31.23
2022-10-06T16:40:25.037Z,32.33
2022-10-06T16:42:57.061Z,32.53
2022-10-06T16:45:28.513Z,32.43
2022-10-06T16:48:02.721Z,32.77
2022-10-06T16:50:34.865Z,31.97
2022-10-06T16:53:07.947Z,31.77
2022-10-06T16:55:40.283Z,32.27
2022-10-06T16:58:12.378Z,32.80
2022-10-06T17:00:44.236Z,32.67
2022-10-06T17:03:18.676Z,33.27
2022-10-06T17:05:52.318Z,33.30
2022-10-06T17:08:26.664Z,33.20
2022-10-06T17:11:04.826Z,32.60
2022-10-06T17:13:36.523Z,32.17
2022-10-06T17:16:09.511Z,32.90
2022-10-06T17:18:44.589Z,31.80
2022-10-06T17:21:40.359Z,30.67
2022-10-06T17:24:08.785Z,31.17
2022-10-06T17:26:41.513Z,31.87
2022-10-06T17:29:18.439Z,30.67
2022-10-06T17:31:51.165Z,30.77
2022-10-06T17:34:27.697Z,30.83
2022-10-06T17:37:02.801Z,30.73
2022-10-06T17:39:36.238Z,30.23
2022-10-06T17:42:09.016Z,31.17
2022-10-06T17:44:41.323Z,28.17
2022-10-06T17:47:14.032Z,28.30
2022-10-06T17:49:47.327Z,28.20
2022-10-06T17:52:24.069Z,27.80
2022-10-06T17:54:57.777Z,27.20
2022-10-06T17:57:31.542Z,27.17
2022-10-06T18:00:06.469Z,27.67
2022-10-06T18:02:41.275Z,26.10
2022-10-06T18:05:17.169Z,24.70
2022-10-06T18:07:48.926Z,24.50
2022-10-06T18:10:36.432Z,24.03
2022-10-06T18:13:09.101Z,23.97
2022-10-06T18:15:44.969Z,22.93
2022-10-06T18:18:16.154Z,24.07
2022-10-06T18:20:49.715Z,23.90
2022-10-06T18:23:21.217Z,23.60
2022-10-06T18:25:52.370Z,22.60
2022-10-06T18:28:24.397Z,22.00
2022-10-06T18:30:55.665Z,22.33
2022-10-06T18:36:22.080Z,24.07
2022-10-06T18:38:56.089Z,23.93
2022-10-06T18:41:29.402Z,23.83
2022-10-06T18:44:05.542Z,24.80
2022-10-06T18:46:55.222Z,23.83
2022-10-06T18:49:28.729Z,24.17
2022-10-06T18:52:05.032Z,25.17
2022-10-06T18:54:36.240Z,24.90
2022-10-06T18:57:09.885Z,22.80
2022-10-06T18:59:44.311Z,24.87
2022-10-06T19:02:16.327Z,23.17
2022-10-06T19:04:48.983Z,23.73
2022-10-06T19:07:21.962Z,23.53
2022-10-06T19:09:53.090Z,23.07
2022-10-06T19:12:28.064Z,22.67
2022-10-06T19:14:59.486Z,24.00
2022-10-06T19:17:32.447Z,22.10
2022-10-06T19:20:05.799Z,23.90
2022-10-06T19:22:39.680Z,25.03
2022-10-06T19:25:12.587Z,23.83
2022-10-06T19:27:44.409Z,24.17
2022-10-06T19:30:16.947Z,24.23
2022-10-06T19:32:48.710Z,24.37
2022-10-06T19:35:20.966Z,23.83
2022-10-06T19:37:58.698Z,22.27
2022-10-06T19:40:30.694Z,23.83
2022-10-06T19:43:01.323Z,23.73
2022-10-06T19:45:33.368Z,22.90
2022-10-06T19:48:05.554Z,25.00
2022-10-06T19:50:41.297Z,26.13
2022-10-06T19:53:16.348Z,24.67
2022-10-06T19:55:48.788Z,23.73
2022-10-06T19:58:29.067Z,24.83
2022-10-06T20:01:00.459Z,25.50
2022-10-06T20:03:34.901Z,24.67
2022-10-06T20:06:07.565Z,25.57
2022-10-06T20:08:42.123Z,24.10
2022-10-06T20:11:18.410Z,25.80
2022-10-06T20:13:50.899Z,25.00
2022-10-06T20:19:11.992Z,24.27
2022-10-06T20:21:43.325Z,25.27
2022-10-06T20:24:19.384Z,23.63
2022-10-06T20:26:52.375Z,25.47
2022-10-06T20:29:29.912Z,24.57
2022-10-06T20:32:02.801Z,25.93
2022-10-06T20:34:37.942Z,25.37
2022-10-06T20:37:09.570Z,29.07
2022-10-06T20:39:59.497Z,26.73
2022-10-06T20:42:32.279Z,28.70
2022-10-06T20:45:06.800Z,26.33
2022-10-06T20:47:37.963Z,25.63
2022-10-06T20:50:10.874Z,26.23
2022-10-06T20:52:43.059Z,26.27
2022-10-06T20:55:25.293Z,26.93
2022-10-06T20:57:57.648Z,25.97
2022-10-06T21:00:29.468Z,25.73
2022-10-06T21:03:01.164Z,26.23
2022-10-06T21:05:34.752Z,29.97
2022-10-06T21:08:06.307Z,30.03
2022-10-06T21:10:40.028Z,30.80
2022-10-06T21:13:11.663Z,30.37
2022-10-06T21:15:49.210Z,31.57
2022-10-06T21:18:22.194Z,33.47
2022-10-06T21:21:10.675Z,37.67
2022-10-06T21:23:44.872Z,35.73
2022-10-06T21:26:21.256Z,35.87
2022-10-06T21:28:53.555Z,37.23
2022-10-06T21:31:26.970Z,37.70
2022-10-06T21:33:58.900Z,34.77
2022-10-06T21:36:33.066Z,35.90
2022-10-06T21:39:06.522Z,35.13
2022-10-06T21:41:41.253Z,34.20
2022-10-06T21:44:13.310Z,35.93
2022-10-06T21:46:46.237Z,35.20
2022-10-06T21:49:18.577Z,36.97
2022-10-06T21:51:51.640Z,38.73
2022-10-06T21:54:23.443Z,39.27
2022-10-06T21:56:57.252Z,38.20
2022-10-06T21:59:29.469Z,36.70
2022-10-06T22:02:01.687Z,37.20
2022-10-06T22:04:33.842Z,41.03
2022-10-06T22:07:06.208Z,42.63
2022-10-06T22:09:46.324Z,42.23
2022-10-06T22:12:22.214Z,39.93
2022-10-06T22:14:53.576Z,38.40
2022-10-06T22:17:26.198Z,39.33
2022-10-06T22:19:59.232Z,36.77
2022-10-06T22:22:31.975Z,37.87
2022-10-06T22:25:04.215Z,37.60
2022-10-06T22:27:38.113Z,37.37
2022-10-06T22:30:17.114Z,38.10
2022-10-06T22:32:48.662Z,36.83
2022-10-06T22:35:21.161Z,38.37
2022-10-06T22:37:53.371Z,36.43
2022-10-06T22:40:24.686Z,36.50
2022-10-06T22:42:58.737Z,35.97
2022-10-06T22:45:30.829Z,36.70
2022-10-06T22:48:02.066Z,36.13
2022-10-06T22:50:33.981Z,35.90
2022-10-06T22:53:06.474Z,35.53
2022-10-06T22:55:38.230Z,36.03
2022-10-06T22:58:12.267Z,34.63
2022-10-06T23:00:44.743Z,33.57
2022-10-06T23:03:18.378Z,34.70
2022-10-06T23:08:49.135Z,34.70
2022-10-06T23:11:22.041Z,32.77
2022-10-06T23:13:55.878Z,33.63
2022-10-06T23:16:27.630Z,31.93
2022-10-06T23:18:59.171Z,33.33
2022-10-06T23:21:32.398Z,30.07
2022-10-06T23:24:04.159Z,31.37
2022-10-06T23:26:37.705Z,31.17
2022-10-06T23:29:12.692Z,29.80
2022-10-06T23:31:44.014Z,30.93
2022-10-06T23:34:16.587Z,30.40
2022-10-06T23:36:51.474Z,28.83
2022-10-06T23:39:23.454Z,28.73
2022-10-06T23:41:55.356Z,29.57
2022-10-06T23:44:29.184Z,28.87
2022-10-06T23:47:00.811Z,28.47
2022-10-06T23:49:35.419Z,28.47
2022-10-06T23:52:08.062Z,29.70
2022-10-06T23:54:40.610Z,27.30
2022-10-06T23:57:12.990Z,28.77
2022-10-06T23:59:47.501Z,28.77
